Time;durP1;ratioP1;P1;durP2;ratioP2;P2;SDS_P1;SDS_P2;PMS_P1;PMS_P2;Temp;Humidity;BMP_temperature;BMP_pressure;BME280_temperature;BME280_humidity;BME280_pressure;Samples;Min_cycle;Max_cycle;Signal;HPM_P1;HPM_P2
2023/12/06 00:01:16;;;;;;;19.25;11.07;;;3.90;99.90;;;;;;5094599;28;20165;-52
2023/12/06 00:03:42;;;;;;;20.75;11.63;;;4.00;99.90;;;;;;5094416;28;20173;-52
2023/12/06 00:06:07;;;;;;;21.15;12.35;;;3.80;99.90;;;;;;5094032;28;20240;-49
2023/12/06 00:08:34;;;;;;;20.92;11.55;;;3.80;99.90;;;;;;5093919;28;20169;-48
2023/12/06 00:10:59;;;;;;;23.58;13.85;;;3.70;99.90;;;;;;5092809;28;20165;-50
2023/12/06 00:13:25;;;;;;;24.63;13.52;;;3.70;99.90;;;;;;5093958;28;20686;-50
2023/12/06 00:15:50;;;;;;;26.77;15.70;;;3.80;99.90;;;;;;5093937;28;20568;-47
2023/12/06 00:18:16;;;;;;;25.23;14.43;;;3.70;99.90;;;;;;5093672;28;20169;-53
2023/12/06 00:20:42;;;;;;;27.58;15.25;;;3.70;99.90;;;;;;5093278;28;20176;-52
2023/12/06 00:23:07;;;;;;;28.13;13.88;;;3.70;99.90;;;;;;5094150;28;20169;-49
2023/12/06 00:25:33;;;;;;;27.20;14.68;;;3.50;99.90;;;;;;5093619;28;20221;-49
2023/12/06 00:27:58;;;;;;;31.63;17.00;;;3.50;99.90;;;;;;5093910;28;20644;-51
2023/12/06 00:30:24;;;;;;;31.38;16.65;;;3.50;99.90;;;;;;5093671;28;20225;-53
2023/12/06 00:32:49;;;;;;;29.08;15.90;;;3.40;99.90;;;;;;5093983;28;20173;-53
2023/12/06 00:35:15;;;;;;;32.63;17.50;;;3.50;99.90;;;;;;5093729;28;20172;-54
2023/12/06 00:37:40;;;;;;;35.05;16.90;;;3.40;99.90;;;;;;5093367;28;20282;-54
2023/12/06 00:40:07;;;;;;;31.70;16.80;;;3.50;99.90;;;;;;5075244;28;20168;-54
2023/12/06 00:42:32;;;;;;;28.40;14.27;;;3.40;99.90;;;;;;5093603;28;20248;-51
2023/12/06 00:44:58;;;;;;;27.73;13.95;;;3.50;99.90;;;;;;5093205;28;20338;-54
2023/12/06 00:47:23;;;;;;;33.05;17.83;;;3.40;99.90;;;;;;5093225;28;20176;-48
2023/12/06 00:49:49;;;;;;;36.97;19.05;;;3.30;99.90;;;;;;5093650;28;20165;-55
2023/12/06 00:52:15;;;;;;;35.35;17.90;;;3.50;99.90;;;;;;5101135;28;20309;-52
2023/12/06 00:54:40;;;;;;;27.05;15.20;;;3.40;99.90;;;;;;5101328;28;20192;-50
2023/12/06 00:57:06;;;;;;;33.42;17.77;;;3.40;99.90;;;;;;5093001;28;20174;-51
2023/12/06 00:59:31;;;;;;;37.47;19.35;;;3.30;99.90;;;;;;5093027;28;20555;-54
2023/12/06 01:01:57;;;;;;;35.83;19.33;;;3.30;99.90;;;;;;5092948;28;20168;-54
2023/12/06 01:04:22;;;;;;;31.50;17.92;;;3.30;99.90;;;;;;5092637;28;20165;-46
2023/12/06 01:06:48;;;;;;;30.20;17.10;;;3.40;99.90;;;;;;5093148;28;20201;-49
2023/12/06 01:09:13;;;;;;;36.90;18.52;;;3.40;99.90;;;;;;5092792;28;20173;-49
2023/12/06 01:11:39;;;;;;;36.38;17.40;;;3.20;99.90;;;;;;5093088;28;20249;-47
2023/12/06 01:14:04;;;;;;;35.38;18.42;;;3.20;99.90;;;;;;5092968;28;20165;-47
2023/12/06 01:16:30;;;;;;;30.60;16.02;;;3.40;99.90;;;;;;5092696;28;20636;-50
2023/12/06 01:18:56;;;;;;;36.97;19.02;;;3.20;99.90;;;;;;5092595;28;20182;-51
2023/12/06 01:21:21;;;;;;;40.08;20.77;;;3.10;99.90;;;;;;5092419;28;20252;-49
2023/12/06 01:23:47;;;;;;;40.47;20.35;;;3.20;99.90;;;;;;5093023;28;20165;-49
2023/12/06 01:26:12;;;;;;;43.25;21.00;;;3.20;99.90;;;;;;5092439;28;20347;-46
2023/12/06 01:28:38;;;;;;;39.28;20.98;;;3.20;99.90;;;;;;5092394;28;20166;-48
2023/12/06 01:31:04;;;;;;;46.47;21.80;;;3.10;99.90;;;;;;5092380;28;20180;-47
2023/12/06 01:33:29;;;;;;;44.65;23.35;;;3.20;99.90;;;;;;5092283;28;20161;-47
2023/12/06 01:35:55;;;;;;;46.88;21.13;;;3.30;99.90;;;;;;5092367;28;20169;-46
2023/12/06 01:38:20;;;;;;;49.10;24.45;;;3.20;99.90;;;;;;5092275;28;20171;-46
2023/12/06 01:40:46;;;;;;;35.90;19.55;;;3.20;99.90;;;;;;5092886;28;20205;-50
2023/12/06 01:43:11;;;;;;;48.55;24.30;;;3.20;99.90;;;;;;5092134;28;20649;-47
2023/12/06 01:45:37;;;;;;;50.17;24.77;;;3.10;99.90;;;;;;5092028;28;20209;-46
2023/12/06 01:48:03;;;;;;;47.83;25.40;;;3.10;99.90;;;;;;5091992;28;20166;-46
2023/12/06 01:50:30;;;;;;;51.88;24.50;;;3.20;99.90;;;;;;5092275;28;20173;-47
2023/12/06 01:52:58;;;;;;;39.30;20.08;;;3.00;99.90;;;;;;5105169;28;20213;-47
2023/12/06 01:55:24;;;;;;;48.22;22.92;;;3.20;99.90;;;;;;5112193;28;20242;-47
2023/12/06 01:57:51;;;;;;;36.33;20.15;;;3.10;99.90;;;;;;5112475;28;20172;-49
2023/12/06 02:00:17;;;;;;;44.08;22.63;;;3.10;99.90;;;;;;5112310;28;20168;-48
2023/12/06 02:02:44;;;;;;;52.78;25.80;;;3.10;99.90;;;;;;5112180;28;20172;-47
2023/12/06 02:05:11;;;;;;;39.38;19.77;;;3.00;99.90;;;;;;5112301;28;20599;-47
2023/12/06 02:07:38;;;;;;;41.40;19.95;;;2.80;99.90;;;;;;5112088;28;20513;-52
2023/12/06 02:10:04;;;;;;;39.40;19.17;;;3.00;99.90;;;;;;5112330;28;20257;-54
2023/12/06 02:12:29;;;;;;;42.30;21.40;;;2.80;99.90;;;;;;5112068;28;20628;-53
2023/12/06 02:14:58;;;;;;;50.17;24.50;;;2.90;99.90;;;;;;5111960;28;20534;-56
2023/12/06 02:17:25;;;;;;;45.03;25.25;;;2.70;99.90;;;;;;5112261;28;20256;-54
2023/12/06 02:19:52;;;;;;;50.63;23.73;;;2.90;99.90;;;;;;5112037;28;20173;-49
2023/12/06 02:22:18;;;;;;;46.25;24.67;;;2.80;99.90;;;;;;5103999;28;20266;-53
2023/12/06 02:24:47;;;;;;;47.67;24.67;;;2.70;99.90;;;;;;5103424;28;20633;-56
2023/12/06 02:27:12;;;;;;;41.20;21.95;;;2.80;99.90;;;;;;5091429;28;20633;-56
2023/12/06 02:29:38;;;;;;;49.03;23.98;;;2.90;99.90;;;;;;5091448;28;20191;-56
2023/12/06 02:32:04;;;;;;;44.15;22.80;;;2.90;99.90;;;;;;5091242;28;20230;-55
2023/12/06 02:34:31;;;;;;;43.40;22.35;;;2.90;99.90;;;;;;5091042;28;20157;-56
2023/12/06 02:37:00;;;;;;;45.22;24.73;;;2.90;99.90;;;;;;5091702;28;20201;-55
2023/12/06 02:39:34;;;;;;;46.97;25.80;;;2.90;99.90;;;;;;5091406;28;20180;-52
2023/12/06 02:41:59;;;;;;;51.05;25.33;;;2.80;99.90;;;;;;5091486;28;20174;-56
2023/12/06 02:44:25;;;;;;;48.85;24.80;;;3.00;99.90;;;;;;5091360;28;20169;-51
2023/12/06 02:46:51;;;;;;;41.55;23.45;;;2.80;99.90;;;;;;5091270;28;20205;-51
2023/12/06 02:49:16;;;;;;;44.25;25.60;;;3.00;99.90;;;;;;5091686;28;20165;-49
2023/12/06 02:51:42;;;;;;;44.90;25.02;;;3.00;99.90;;;;;;5095849;28;20215;-56
2023/12/06 02:54:07;;;;;;;47.70;25.70;;;2.90;99.90;;;;;;5111614;28;20538;-54
2023/12/06 02:56:33;;;;;;;43.95;25.38;;;3.00;99.90;;;;;;5109887;28;20184;-47
2023/12/06 02:58:58;;;;;;;48.40;26.45;;;3.10;99.90;;;;;;5111516;28;20692;-54
2023/12/06 03:01:24;;;;;;;41.78;24.48;;;3.10;99.90;;;;;;5111564;28;20177;-55
2023/12/06 03:03:49;;;;;;;41.88;23.27;;;3.00;99.90;;;;;;5111926;28;20169;-54
2023/12/06 03:06:15;;;;;;;36.90;21.70;;;3.10;99.90;;;;;;5111829;28;20211;-52
2023/12/06 03:08:40;;;;;;;44.22;24.67;;;3.00;99.90;;;;;;5111491;28;20165;-55
2023/12/06 03:11:06;;;;;;;41.30;23.77;;;3.00;99.90;;;;;;5111505;28;20221;-55
2023/12/06 03:13:31;;;;;;;32.67;17.30;;;3.00;99.90;;;;;;5111475;28;20215;-52
2023/12/06 03:15:57;;;;;;;39.63;22.88;;;2.90;99.90;;;;;;5111421;28;20165;-52
2023/12/06 03:18:22;;;;;;;33.05;19.73;;;3.10;99.90;;;;;;5111453;28;20169;-52
2023/12/06 03:20:48;;;;;;;36.67;21.70;;;2.90;99.90;;;;;;5111767;28;20211;-54
2023/12/06 03:23:14;;;;;;;34.53;20.90;;;3.10;99.90;;;;;;5092948;28;20173;-53
2023/12/06 03:25:39;;;;;;;29.60;18.25;;;3.00;99.90;;;;;;5091187;28;20678;-54
2023/12/06 03:28:05;;;;;;;33.47;19.35;;;2.90;99.90;;;;;;5090939;28;20172;-53
2023/12/06 03:30:30;;;;;;;32.70;20.42;;;3.00;99.90;;;;;;5090923;28;20169;-53
2023/12/06 03:32:56;;;;;;;33.67;18.90;;;3.00;99.90;;;;;;5090915;28;20551;-52
2023/12/06 03:35:21;;;;;;;28.77;17.70;;;2.90;99.90;;;;;;5090846;28;20168;-55
2023/12/06 03:37:47;;;;;;;33.35;20.85;;;3.00;99.90;;;;;;5091291;28;20260;-55
2023/12/06 03:40:13;;;;;;;23.30;14.60;;;3.00;99.90;;;;;;5090822;28;20165;-53
2023/12/06 03:42:39;;;;;;;37.72;23.00;;;2.90;99.90;;;;;;5091033;28;20177;-51
2023/12/06 03:45:05;;;;;;;33.95;16.88;;;2.90;99.90;;;;;;5093208;28;20274;-54
2023/12/06 03:47:31;;;;;;;37.75;21.35;;;2.90;99.90;;;;;;5094372;28;20173;-53
2023/12/06 03:49:56;;;;;;;32.35;19.48;;;2.80;99.90;;;;;;5094322;28;20211;-52
2023/12/06 03:52:22;;;;;;;38.20;21.80;;;2.80;99.90;;;;;;5104523;28;20209;-48
2023/12/06 03:54:48;;;;;;;37.70;21.63;;;2.90;99.90;;;;;;5114850;28;20229;-48
2023/12/06 03:57:13;;;;;;;36.80;21.13;;;3.00;99.90;;;;;;5114924;28;20164;-47
2023/12/06 03:59:39;;;;;;;37.08;20.05;;;2.90;99.90;;;;;;5114608;28;20243;-47
2023/12/06 04:02:04;;;;;;;35.13;18.77;;;3.00;99.90;;;;;;5114374;28;20171;-46
2023/12/06 04:04:30;;;;;;;34.58;21.23;;;3.00;99.90;;;;;;5114272;28;20169;-47
2023/12/06 04:06:55;;;;;;;41.28;21.98;;;3.00;99.90;;;;;;5114296;28;20208;-47
2023/12/06 04:09:21;;;;;;;37.25;21.23;;;2.90;99.90;;;;;;5114339;28;20165;-47
2023/12/06 04:11:46;;;;;;;44.03;23.58;;;2.90;99.90;;;;;;5114752;28;20180;-47
2023/12/06 04:14:12;;;;;;;40.92;21.27;;;3.00;99.90;;;;;;5114249;28;20209;-48
2023/12/06 04:16:37;;;;;;;42.67;21.65;;;3.00;99.90;;;;;;5114228;28;20221;-51
2023/12/06 04:19:03;;;;;;;44.33;23.48;;;2.90;99.90;;;;;;5093844;28;20543;-47
2023/12/06 04:21:29;;;;;;;45.03;25.05;;;2.90;99.90;;;;;;5094179;28;20169;-48
2023/12/06 04:23:54;;;;;;;48.08;24.08;;;3.00;99.90;;;;;;5093895;28;20184;-50
2023/12/06 04:26:21;;;;;;;40.97;21.85;;;3.10;99.90;;;;;;5093673;28;20205;-49
2023/12/06 04:28:46;;;;;;;44.90;24.33;;;3.20;99.90;;;;;;5094032;28;20286;-49
2023/12/06 04:31:12;;;;;;;44.75;23.27;;;3.20;99.90;;;;;;5093536;28;20606;-47
2023/12/06 04:33:37;;;;;;;44.90;24.52;;;3.10;99.90;;;;;;5093357;28;20277;-46
2023/12/06 04:36:04;;;;;;;49.53;25.83;;;3.10;99.90;;;;;;5093420;28;20173;-46
2023/12/06 04:38:30;;;;;;;45.67;23.50;;;3.30;99.90;;;;;;5093440;28;20571;-46
2023/12/06 04:40:56;;;;;;;42.17;23.52;;;3.10;99.90;;;;;;5093403;28;20173;-48
2023/12/06 04:43:22;;;;;;;46.22;24.27;;;3.30;99.90;;;;;;5093654;28;20177;-46
2023/12/06 04:45:47;;;;;;;44.97;24.48;;;3.20;99.90;;;;;;5093596;28;20201;-46
2023/12/06 04:48:13;;;;;;;44.45;23.50;;;3.30;99.90;;;;;;5093267;28;20175;-48
2023/12/06 04:50:38;;;;;;;41.72;23.90;;;3.20;99.90;;;;;;5093215;28;20561;-48
2023/12/06 04:53:04;;;;;;;43.72;23.10;;;3.30;99.90;;;;;;5093245;28;20632;-48
2023/12/06 04:55:29;;;;;;;44.30;23.80;;;3.40;99.90;;;;;;5092346;28;20640;-47
2023/12/06 04:57:55;;;;;;;41.22;23.10;;;3.40;99.90;;;;;;5092967;28;20609;-48
2023/12/06 05:00:21;;;;;;;45.50;24.23;;;3.20;99.90;;;;;;5093086;28;20180;-46
2023/12/06 05:02:47;;;;;;;43.22;24.25;;;3.20;99.90;;;;;;5093299;28;20628;-47
2023/12/06 05:05:13;;;;;;;48.55;23.83;;;3.30;99.90;;;;;;5092781;28;20193;-46
2023/12/06 05:07:38;;;;;;;40.08;21.23;;;3.40;99.90;;;;;;5092842;28;20172;-46
2023/12/06 05:10:04;;;;;;;40.80;23.40;;;3.30;99.90;;;;;;5092864;28;20239;-48
2023/12/06 05:12:30;;;;;;;41.10;22.90;;;3.50;99.90;;;;;;5092751;28;20161;-48
2023/12/06 05:14:55;;;;;;;34.58;20.52;;;3.50;99.90;;;;;;5092682;28;20679;-51
2023/12/06 05:17:21;;;;;;;38.42;21.92;;;3.40;99.90;;;;;;5092834;28;20176;-49
2023/12/06 05:19:47;;;;;;;44.05;23.70;;;3.30;99.90;;;;;;5093034;28;20170;-46
2023/12/06 05:22:12;;;;;;;40.22;23.85;;;3.40;99.90;;;;;;5103368;28;20206;-49
2023/12/06 05:24:38;;;;;;;42.53;24.23;;;3.20;99.90;;;;;;5112522;28;20161;-48
2023/12/06 05:27:03;;;;;;;36.60;22.30;;;3.30;99.90;;;;;;5112721;28;20561;-48
2023/12/06 05:29:29;;;;;;;40.53;23.48;;;3.50;99.90;;;;;;5112864;28;20712;-49
2023/12/06 05:31:54;;;;;;;40.00;23.10;;;3.50;99.90;;;;;;5112589;28;20197;-46
2023/12/06 05:34:21;;;;;;;39.95;23.27;;;3.50;99.90;;;;;;5112699;28;20609;-46
2023/12/06 05:36:46;;;;;;;40.67;24.15;;;3.30;99.90;;;;;;5113296;28;20173;-55
2023/12/06 05:39:12;;;;;;;41.72;24.58;;;3.40;99.90;;;;;;5112521;28;20647;-55
2023/12/06 05:41:37;;;;;;;35.70;22.70;;;3.30;99.90;;;;;;5112644;28;20184;-53
2023/12/06 05:44:05;;;;;;;41.58;26.00;;;3.30;99.90;;;;;;5112520;28;20226;-54
2023/12/06 05:46:31;;;;;;;36.17;24.30;;;3.50;99.90;;;;;;5112343;28;20196;-56
2023/12/06 05:48:56;;;;;;;39.28;24.35;;;3.50;99.90;;;;;;5112188;28;20217;-52
2023/12/06 05:51:22;;;;;;;38.78;23.27;;;3.40;99.90;;;;;;5107780;28;20278;-47
2023/12/06 05:53:48;;;;;;;38.90;25.25;;;3.50;99.90;;;;;;5102708;28;20168;-54
2023/12/06 05:56:14;;;;;;;43.28;25.38;;;3.50;99.90;;;;;;5111639;28;20582;-50
2023/12/06 05:58:40;;;;;;;45.80;28.40;;;3.50;99.90;;;;;;5111753;28;20169;-50
2023/12/06 06:01:05;;;;;;;38.15;23.67;;;3.40;99.90;;;;;;5111921;28;20627;-53
2023/12/06 06:03:31;;;;;;;42.10;24.88;;;3.40;99.90;;;;;;5111665;28;20173;-53
2023/12/06 06:05:57;;;;;;;44.50;25.08;;;3.50;99.90;;;;;;5111426;28;20295;-53
2023/12/06 06:08:22;;;;;;;42.95;26.77;;;3.50;99.90;;;;;;5109754;28;20168;-52
2023/12/06 06:10:48;;;;;;;46.50;28.08;;;3.40;99.90;;;;;;5096054;28;20177;-55
2023/12/06 06:13:13;;;;;;;47.38;25.35;;;3.50;99.90;;;;;;5091214;28;20168;-50
2023/12/06 06:15:39;;;;;;;40.42;25.83;;;3.40;99.90;;;;;;5091106;28;20166;-55
2023/12/06 06:18:05;;;;;;;42.88;25.80;;;3.60;99.90;;;;;;5090964;28;20644;-53
2023/12/06 06:20:32;;;;;;;38.13;20.80;;;3.40;99.90;;;;;;5091246;28;20165;-50
2023/12/06 06:22:58;;;;;;;50.53;27.50;;;3.40;99.90;;;;;;5107980;28;20173;-55
2023/12/06 06:25:24;;;;;;;43.33;26.17;;;3.60;99.90;;;;;;5111242;28;20203;-53
2023/12/06 06:27:49;;;;;;;44.60;24.52;;;3.40;99.90;;;;;;5111208;28;20169;-51
2023/12/06 06:30:15;;;;;;;50.80;26.67;;;3.40;99.90;;;;;;5111712;28;20531;-53
2023/12/06 06:32:40;;;;;;;41.67;24.52;;;3.40;99.90;;;;;;5111266;28;20628;-55
2023/12/06 06:35:07;;;;;;;51.42;25.17;;;3.40;99.90;;;;;;5111266;28;20172;-55
2023/12/06 06:37:33;;;;;;;33.95;21.55;;;3.60;99.90;;;;;;5111571;28;20229;-53
2023/12/06 06:39:59;;;;;;;45.55;27.05;;;3.50;99.90;;;;;;5111190;28;20628;-55
2023/12/06 06:42:24;;;;;;;43.00;25.20;;;3.60;99.90;;;;;;5111143;28;20538;-50
2023/12/06 06:44:51;;;;;;;40.05;23.48;;;3.50;99.90;;;;;;5111210;28;20161;-54
2023/12/06 06:47:17;;;;;;;39.60;22.10;;;3.50;99.90;;;;;;5111747;28;20189;-46
2023/12/06 06:49:44;;;;;;;41.30;24.88;;;3.60;99.90;;;;;;5111137;28;20156;-52
2023/12/06 06:52:10;;;;;;;38.00;23.92;;;3.50;99.90;;;;;;5100601;28;20227;-52
2023/12/06 06:54:36;;;;;;;39.45;24.65;;;3.50;99.90;;;;;;5104905;28;20172;-53
2023/12/06 06:57:01;;;;;;;34.00;21.17;;;3.50;99.90;;;;;;5092916;28;20662;-54
2023/12/06 06:59:28;;;;;;;39.80;23.63;;;3.50;99.90;;;;;;5092772;28;20179;-54
2023/12/06 07:01:53;;;;;;;46.20;26.15;;;3.70;99.90;;;;;;5110976;28;20685;-55
2023/12/06 07:04:19;;;;;;;43.13;23.52;;;2.40;99.90;;;;;;5111021;28;20172;-49
2023/12/06 07:06:45;;;;;;;38.72;23.05;;;3.60;99.90;;;;;;5111457;28;20691;-53
2023/12/06 07:09:10;;;;;;;33.78;21.90;;;3.60;99.90;;;;;;5110863;28;20523;-54
2023/12/06 07:11:36;;;;;;;37.90;23.65;;;3.50;99.90;;;;;;5110756;28;20530;-54
2023/12/06 07:14:03;;;;;;;38.17;21.92;;;3.70;99.90;;;;;;5110790;28;20530;-52
2023/12/06 07:16:28;;;;;;;37.80;24.40;;;3.70;99.90;;;;;;5110867;28;20628;-50
2023/12/06 07:18:54;;;;;;;36.28;21.75;;;3.70;99.90;;;;;;5111771;28;20210;-54
2023/12/06 07:21:20;;;;;;;37.03;23.35;;;3.70;99.90;;;;;;5111739;28;20628;-54
2023/12/06 07:23:45;;;;;;;34.38;20.52;;;3.60;99.90;;;;;;5094579;28;20161;-56
2023/12/06 07:26:11;;;;;;;36.33;20.83;;;3.60;99.90;;;;;;5094344;28;20690;-52
2023/12/06 07:28:36;;;;;;;35.95;22.23;;;3.80;99.90;;;;;;5094586;28;20529;-53
2023/12/06 07:31:03;;;;;;;32.28;20.70;;;3.80;99.90;;;;;;5094118;28;20576;-56
2023/12/06 07:33:28;;;;;;;41.53;21.80;;;3.80;99.90;;;;;;5094041;28;20648;-55
2023/12/06 07:35:54;;;;;;;35.30;21.15;;;3.80;99.90;;;;;;5094404;28;20176;-50
2023/12/06 07:38:20;;;;;;;30.65;19.33;;;3.70;99.90;;;;;;5094050;28;20552;-50
2023/12/06 07:40:45;;;;;;;48.92;20.85;;;3.70;99.90;;;;;;5094521;28;20656;-55
2023/12/06 07:43:11;;;;;;;35.92;21.50;;;3.60;99.90;;;;;;5094001;28;20645;-51
2023/12/06 07:45:37;;;;;;;30.90;20.02;;;3.90;99.90;;;;;;5093854;28;20280;-53
2023/12/06 07:48:02;;;;;;;33.22;20.45;;;3.70;99.90;;;;;;5093981;28;20164;-49
2023/12/06 07:50:28;;;;;;;30.58;20.98;;;3.80;99.90;;;;;;5094142;28;20165;-50
2023/12/06 07:52:54;;;;;;;33.83;20.42;;;3.90;99.90;;;;;;5094051;28;20723;-49
2023/12/06 07:55:20;;;;;;;34.10;19.77;;;3.80;99.90;;;;;;5093892;28;20172;-48
2023/12/06 07:57:45;;;;;;;35.65;20.67;;;3.80;99.90;;;;;;5094365;28;20173;-47
2023/12/06 08:00:12;;;;;;;32.00;22.50;;;3.80;99.90;;;;;;5093615;28;20177;-48
2023/12/06 08:02:39;;;;;;;37.08;20.90;;;3.90;99.90;;;;;;5093526;28;20169;-48
2023/12/06 08:05:07;;;;;;;31.73;20.10;;;3.80;99.90;;;;;;5093339;28;20166;-51
2023/12/06 08:07:33;;;;;;;33.90;21.10;;;3.90;99.90;;;;;;5093718;28;20534;-50
2023/12/06 08:09:59;;;;;;;32.88;20.25;;;4.00;99.90;;;;;;5093669;28;20164;-48
2023/12/06 08:12:24;;;;;;;32.00;20.40;;;4.00;99.90;;;;;;5093429;28;20218;-45
2023/12/06 08:14:50;;;;;;;31.15;21.00;;;3.90;99.90;;;;;;5093293;28;20169;-46
2023/12/06 08:17:15;;;;;;;28.02;18.95;;;3.90;99.90;;;;;;5095595;28;20173;-54
2023/12/06 08:19:41;;;;;;;34.25;22.90;;;3.90;99.90;;;;;;5112023;28;20322;-45
2023/12/06 08:22:06;;;;;;;36.90;20.67;;;3.90;99.90;;;;;;5102745;28;20180;-46
2023/12/06 08:24:33;;;;;;;30.45;19.60;;;3.90;99.90;;;;;;5091728;28;20173;-45
2023/12/06 08:26:58;;;;;;;27.35;18.20;;;3.90;99.90;;;;;;5091480;28;20224;-47
2023/12/06 08:29:25;;;;;;;29.90;19.77;;;3.90;99.90;;;;;;5091515;28;20679;-50
2023/12/06 08:31:50;;;;;;;27.50;17.15;;;3.90;99.90;;;;;;5090226;28;20266;-50
2023/12/06 08:34:16;;;;;;;28.50;19.73;;;4.10;99.90;;;;;;5091868;28;20226;-48
2023/12/06 08:36:41;;;;;;;30.20;16.58;;;4.10;99.90;;;;;;5091519;28;20185;-48
2023/12/06 08:39:07;;;;;;;28.80;18.48;;;4.10;99.90;;;;;;5073127;28;20189;-45
2023/12/06 08:41:32;;;;;;;30.48;17.23;;;4.20;99.90;;;;;;5091120;28;20651;-49
2023/12/06 08:43:58;;;;;;;29.13;20.15;;;4.20;99.90;;;;;;5091161;28;20173;-46
2023/12/06 08:46:24;;;;;;;32.20;21.48;;;4.20;99.90;;;;;;5091135;28;20255;-45
2023/12/06 08:48:50;;;;;;;30.80;19.73;;;4.20;99.90;;;;;;5090966;28;20248;-47
2023/12/06 08:51:15;;;;;;;31.92;20.13;;;4.20;99.90;;;;;;5092535;28;20292;-45
2023/12/06 08:53:41;;;;;;;30.77;20.83;;;4.20;99.90;;;;;;5110987;28;20187;-46
2023/12/06 08:56:07;;;;;;;34.13;19.63;;;4.10;99.90;;;;;;5111354;28;20187;-54
2023/12/06 08:58:32;;;;;;;34.33;22.10;;;4.30;99.90;;;;;;5111307;28;20161;-46
2023/12/06 09:00:58;;;;;;;31.30;20.70;;;4.10;99.90;;;;;;5110981;28;20207;-53
2023/12/06 09:03:23;;;;;;;31.42;22.50;;;4.10;99.90;;;;;;5112370;28;20168;-50
2023/12/06 09:05:49;;;;;;;31.05;19.88;;;4.20;99.90;;;;;;5112689;28;20570;-47
2023/12/06 09:08:15;;;;;;;37.28;22.67;;;4.20;99.90;;;;;;5113363;28;20172;-46
2023/12/06 09:10:41;;;;;;;33.58;20.00;;;4.20;99.90;;;;;;5094303;28;20169;-46
2023/12/06 09:13:06;;;;;;;32.40;20.27;;;4.40;99.90;;;;;;5112433;28;20164;-47
2023/12/06 09:15:32;;;;;;;36.63;20.85;;;4.40;99.90;;;;;;5112836;28;20165;-46
2023/12/06 09:17:57;;;;;;;32.17;20.75;;;4.30;99.90;;;;;;5112529;28;20646;-46
2023/12/06 09:20:23;;;;;;;39.05;22.13;;;4.30;99.90;;;;;;5112517;28;20609;-47
2023/12/06 09:22:50;;;;;;;27.17;16.42;;;4.30;99.90;;;;;;5095418;28;20226;-47
2023/12/06 09:25:16;;;;;;;32.00;20.63;;;4.30;99.90;;;;;;5092531;28;20171;-52
2023/12/06 09:27:41;;;;;;;32.35;20.75;;;4.30;99.90;;;;;;5091943;28;20595;-46
2023/12/06 09:30:08;;;;;;;31.23;19.88;;;4.40;99.90;;;;;;5091855;28;20170;-52
2023/12/06 09:32:34;;;;;;;36.00;18.08;;;4.50;99.90;;;;;;5092080;28;20173;-47
2023/12/06 09:35:00;;;;;;;29.05;16.95;;;4.30;99.90;;;;;;5091892;28;20576;-50
2023/12/06 09:37:25;;;;;;;33.63;19.55;;;4.30;99.90;;;;;;5092224;28;20169;-45
2023/12/06 09:39:51;;;;;;;30.27;18.58;;;4.50;99.90;;;;;;5091740;28;20161;-50
2023/12/06 09:42:17;;;;;;;29.42;18.95;;;4.60;99.90;;;;;;5092028;28;20682;-47
2023/12/06 09:44:42;;;;;;;30.70;19.10;;;4.50;99.90;;;;;;5091841;28;20162;-49
2023/12/06 09:47:08;;;;;;;29.30;18.83;;;4.40;99.90;;;;;;5091716;28;20201;-52
2023/12/06 09:49:34;;;;;;;30.05;18.98;;;4.60;99.90;;;;;;5092009;28;20165;-55
2023/12/06 09:52:11;;;;;;;29.38;19.65;;;4.60;99.90;;;;;;5091903;28;20617;-54
2023/12/06 09:54:45;;;;;;;30.30;18.90;;;4.70;99.90;;;;;;5107090;28;20600;-48
2023/12/06 09:57:12;;;;;;;29.70;18.77;;;4.50;99.90;;;;;;5111665;28;20174;-55
2023/12/06 09:59:38;;;;;;;30.25;17.65;;;4.60;99.90;;;;;;5111679;28;20211;-53
2023/12/06 10:02:03;;;;;;;29.10;18.40;;;4.60;99.90;;;;;;5111513;28;20173;-49
2023/12/06 10:04:29;;;;;;;27.80;17.00;;;4.80;99.90;;;;;;5111678;28;20192;-54
2023/12/06 10:06:55;;;;;;;26.95;17.38;;;4.80;99.90;;;;;;5111526;28;20204;-49
2023/12/06 10:09:21;;;;;;;30.00;18.58;;;4.70;99.90;;;;;;5111949;28;20169;-55
2023/12/06 10:11:49;;;;;;;27.52;16.48;;;4.80;99.90;;;;;;5111994;28;20693;-51
2023/12/06 10:14:21;;;;;;;32.20;17.67;;;4.80;99.90;;;;;;5112026;28;20171;-55
2023/12/06 10:16:47;;;;;;;26.05;16.52;;;4.90;99.90;;;;;;5112087;28;20169;-54
2023/12/06 10:19:21;;;;;;;25.25;15.27;;;4.80;99.90;;;;;;5111372;28;20164;-53
2023/12/06 10:21:47;;;;;;;27.65;16.40;;;4.90;99.90;;;;;;5101003;28;20183;-51
2023/12/06 10:24:13;;;;;;;27.75;16.70;;;4.90;99.90;;;;;;5091741;28;20173;-52
2023/12/06 10:26:39;;;;;;;23.80;15.05;;;4.90;99.90;;;;;;5090910;28;20193;-48
2023/12/06 10:29:05;;;;;;;28.10;16.95;;;5.00;99.90;;;;;;5092450;28;20165;-47
2023/12/06 10:31:38;;;;;;;33.75;16.70;;;4.90;99.90;;;;;;5111278;28;20164;-51
2023/12/06 10:34:05;;;;;;;32.08;17.20;;;4.90;99.90;;;;;;5111458;28;20285;-51
2023/12/06 10:36:31;;;;;;;27.65;15.70;;;5.00;99.90;;;;;;5111548;28;20164;-52
2023/12/06 10:38:58;;;;;;;25.25;16.80;;;5.00;99.90;;;;;;5111392;28;20169;-50
2023/12/06 10:41:25;;;;;;;24.92;16.35;;;5.10;99.90;;;;;;5111268;28;20167;-51
2023/12/06 10:43:55;;;;;;;25.60;17.23;;;4.90;99.90;;;;;;5111160;28;20237;-48
2023/12/06 10:46:21;;;;;;;25.30;16.33;;;5.10;99.90;;;;;;5111118;28;20592;-49
2023/12/06 10:48:48;;;;;;;26.20;16.70;;;5.00;99.90;;;;;;5111595;28;20168;-48
2023/12/06 10:51:16;;;;;;;34.42;15.88;;;4.90;99.90;;;;;;5105429;28;20197;-51
2023/12/06 10:53:43;;;;;;;32.33;17.48;;;5.00;99.90;;;;;;5091026;28;20169;-48
2023/12/06 10:56:09;;;;;;;24.27;17.10;;;4.90;99.90;;;;;;5094979;28;20528;-49
2023/12/06 10:58:36;;;;;;;28.23;17.67;;;5.10;99.90;;;;;;5095118;28;20181;-49
2023/12/06 11:01:02;;;;;;;22.70;15.70;;;5.00;99.90;;;;;;5094910;28;20686;-47
2023/12/06 11:03:28;;;;;;;21.60;15.80;;;5.00;99.90;;;;;;5094755;28;20505;-49
2023/12/06 11:05:58;;;;;;;29.73;16.80;;;5.10;99.90;;;;;;5094648;28;20208;-51
2023/12/06 11:08:32;;;;;;;25.80;16.50;;;5.20;99.90;;;;;;5094760;28;20177;-45
2023/12/06 11:11:37;;;;;;;28.02;17.05;;;5.20;99.90;;;;;;5095074;28;20176;-46
2023/12/06 11:14:15;;;;;;;26.50;14.90;;;7.10;99.90;;;;;;5064449;28;20184;-46
2023/12/06 11:17:04;;;;;;;29.35;16.35;;;5.20;99.90;;;;;;5094543;28;20173;-45
2023/12/06 11:19:30;;;;;;;20.63;14.27;;;5.20;99.90;;;;;;5094436;28;20203;-46
2023/12/06 11:21:56;;;;;;;26.75;16.48;;;5.40;99.90;;;;;;5094867;28;20264;-45
2023/12/06 11:24:21;;;;;;;21.52;14.77;;;5.40;99.90;;;;;;5094717;28;20208;-45
2023/12/06 11:26:47;;;;;;;31.35;15.35;;;5.40;99.90;;;;;;5094653;28;20208;-45
2023/12/06 11:29:13;;;;;;;33.08;15.63;;;5.40;99.90;;;;;;5094774;28;20165;-45
2023/12/06 11:31:38;;;;;;;25.63;16.02;;;5.40;99.90;;;;;;5094378;28;20176;-45
2023/12/06 11:34:06;;;;;;;22.45;15.85;;;5.40;99.90;;;;;;5094510;28;20167;-46
2023/12/06 11:36:32;;;;;;;24.38;15.50;;;5.40;99.90;;;;;;5094416;28;20173;-47
2023/12/06 11:38:58;;;;;;;23.85;15.30;;;5.50;99.90;;;;;;5094102;28;20161;-44
2023/12/06 11:41:24;;;;;;;28.17;16.40;;;5.40;99.90;;;;;;5094181;28;20172;-44
2023/12/06 11:43:52;;;;;;;26.48;14.88;;;5.50;99.90;;;;;;5093997;28;20245;-44
2023/12/06 11:46:20;;;;;;;22.40;13.45;;;5.50;99.90;;;;;;5094391;28;20672;-44
2023/12/06 11:48:48;;;;;;;24.75;14.93;;;5.50;99.90;;;;;;5094328;28;20181;-45
2023/12/06 11:51:28;;;;;;;20.55;14.30;;;5.50;99.90;;;;;;5101772;28;20164;-45
2023/12/06 11:53:55;;;;;;;24.90;14.20;;;5.50;99.90;;;;;;5114546;28;20251;-45
2023/12/06 11:56:25;;;;;;;20.92;12.88;;;5.60;99.90;;;;;;5114221;28;20261;-48
2023/12/06 11:58:52;;;;;;;21.90;13.75;;;5.70;99.90;;;;;;5113770;28;20157;-47
2023/12/06 12:01:19;;;;;;;24.02;13.73;;;5.70;99.90;;;;;;5114598;28;20168;-51
2023/12/06 12:03:45;;;;;;;20.63;13.25;;;5.70;99.90;;;;;;5114586;28;20169;-55
2023/12/06 12:06:12;;;;;;;22.02;12.40;;;5.80;99.90;;;;;;5114088;28;20208;-54
2023/12/06 12:08:39;;;;;;;22.80;13.68;;;6.10;99.90;;;;;;5113694;28;20642;-45
2023/12/06 12:11:07;;;;;;;20.95;13.00;;;6.20;99.90;;;;;;5114241;28;20177;-45
2023/12/06 12:13:40;;;;;;;19.83;11.32;;;6.40;99.90;;;;;;5113935;28;20632;-54
2023/12/06 12:16:06;;;;;;;25.30;12.90;;;6.30;99.90;;;;;;5113854;28;20164;-55
2023/12/06 12:18:32;;;;;;;20.13;12.30;;;6.40;99.90;;;;;;5113826;28;20176;-55
2023/12/06 12:20:58;;;;;;;19.05;11.60;;;6.50;99.90;;;;;;5108263;28;20192;-53
2023/12/06 12:23:30;;;;;;;19.63;12.63;;;6.50;99.90;;;;;;5093356;28;20161;-53
2023/12/06 12:25:56;;;;;;;17.02;11.55;;;6.30;99.90;;;;;;5093419;28;20224;-53
2023/12/06 12:28:23;;;;;;;17.73;11.00;;;6.30;99.90;;;;;;5093212;28;20625;-53
2023/12/06 12:30:57;;;;;;;18.08;10.80;;;6.20;99.90;;;;;;5093164;28;20241;-54